Terminal Aerodrome Forecast
Issued by NWS

Home | Current Version | Previous Version | Graphics & Text | Print | Product List | Glossary On
Versions: 1 2 3 4 5 6 7 8 9 10 11 12 13 14 15
925
FTUS43 KGRB 191537 AAA
TAFCWA
TAF AMD
KCWA 191537Z 1916/2012 30010G16KT P6SM OVC030
     FM191900 33010G15KT P6SM BKN040
     FM200100 35005KT P6SM SKC=

USA.gov is the U.S. government's official web portal to all federal, state and local government web resources and services.